sensor_id;sensor_type;location;lat;lon;timestamp;pressure;altitude;pressure_sealevel;temperature;humidity
4590;BME280;2307;48.448;9.216;2023-02-18T00:00:16;96381.34;;;10.62;100.00
4590;BME280;2307;48.448;9.216;2023-02-18T00:02:44;96377.69;;;10.56;100.00
4590;BME280;2307;48.448;9.216;2023-02-18T00:05:11;96377.28;;;10.59;100.00
4590;BME280;2307;48.448;9.216;2023-02-18T00:07:38;96376.03;;;10.69;100.00
4590;BME280;2307;48.448;9.216;2023-02-18T00:10:06;96393.50;;;10.70;100.00
4590;BME280;2307;48.448;9.216;2023-02-18T00:12:33;96380.50;;;10.68;100.00
4590;BME280;2307;48.448;9.216;2023-02-18T00:14:59;96382.53;;;10.66;100.00
4590;BME280;2307;48.448;9.216;2023-02-18T00:17:27;96386.59;;;10.69;100.00
4590;BME280;2307;48.448;9.216;2023-02-18T00:19:54;96378.47;;;10.70;100.00
4590;BME280;2307;48.448;9.216;2023-02-18T00:22:21;96371.34;;;10.71;100.00
4590;BME280;2307;48.448;9.216;2023-02-18T00:24:48;96371.69;;;10.81;100.00
4590;BME280;2307;48.448;9.216;2023-02-18T00:27:14;96386.50;;;10.82;100.00
4590;BME280;2307;48.448;9.216;2023-02-18T00:29:41;96388.56;;;10.80;100.00
4590;BME280;2307;48.448;9.216;2023-02-18T00:32:07;96366.19;;;10.82;100.00
4590;BME280;2307;48.448;9.216;2023-02-18T00:34:34;96373.31;;;10.82;100.00
4590;BME280;2307;48.448;9.216;2023-02-18T00:37:01;96364.63;;;10.75;100.00
4590;BME280;2307;48.448;9.216;2023-02-18T00:39:28;96341.28;;;10.72;100.00
4590;BME280;2307;48.448;9.216;2023-02-18T00:41:54;96349.63;;;10.69;100.00
4590;BME280;2307;48.448;9.216;2023-02-18T00:44:20;96354.47;;;10.72;100.00
4590;BME280;2307;48.448;9.216;2023-02-18T00:46:47;96358.16;;;10.64;100.00
4590;BME280;2307;48.448;9.216;2023-02-18T00:49:14;96367.91;;;10.63;100.00
4590;BME280;2307;48.448;9.216;2023-02-18T00:51:40;96371.75;;;10.68;100.00
4590;BME280;2307;48.448;9.216;2023-02-18T00:54:08;96372.75;;;10.73;100.00
4590;BME280;2307;48.448;9.216;2023-02-18T00:56:34;96383.28;;;10.80;100.00
4590;BME280;2307;48.448;9.216;2023-02-18T00:59:01;96375.19;;;10.75;100.00
4590;BME280;2307;48.448;9.216;2023-02-18T01:01:27;96378.06;;;10.66;100.00
4590;BME280;2307;48.448;9.216;2023-02-18T01:03:54;96375.25;;;10.61;100.00
4590;BME280;2307;48.448;9.216;2023-02-18T01:06:20;96362.25;;;10.60;100.00
4590;BME280;2307;48.448;9.216;2023-02-18T01:08:47;96349.66;;;10.62;100.00
4590;BME280;2307;48.448;9.216;2023-02-18T01:11:15;96358.19;;;10.57;100.00
4590;BME280;2307;48.448;9.216;2023-02-18T01:13:41;96350.47;;;10.56;100.00
4590;BME280;2307;48.448;9.216;2023-02-18T01:16:08;96344.56;;;10.60;100.00
4590;BME280;2307;48.448;9.216;2023-02-18T01:18:34;96339.13;;;10.55;100.00
4590;BME280;2307;48.448;9.216;2023-02-18T01:21:01;96340.91;;;10.61;100.00
4590;BME280;2307;48.448;9.216;2023-02-18T01:23:29;96350.47;;;10.56;100.00
4590;BME280;2307;48.448;9.216;2023-02-18T01:25:56;96335.25;;;10.58;100.00
4590;BME280;2307;48.448;9.216;2023-02-18T01:28:24;96342.34;;;10.57;100.00
4590;BME280;2307;48.448;9.216;2023-02-18T01:30:51;96333.41;;;10.58;100.00
4590;BME280;2307;48.448;9.216;2023-02-18T01:33:17;96334.22;;;10.59;100.00
4590;BME280;2307;48.448;9.216;2023-02-18T01:35:43;96328.94;;;10.59;100.00
4590;BME280;2307;48.448;9.216;2023-02-18T01:38:10;96333.56;;;10.63;100.00
4590;BME280;2307;48.448;9.216;2023-02-18T01:40:42;96331.34;;;10.60;100.00
4590;BME280;2307;48.448;9.216;2023-02-18T01:43:09;96339.88;;;10.62;100.00
4590;BME280;2307;48.448;9.216;2023-02-18T01:45:42;96337.84;;;10.64;100.00
4590;BME280;2307;48.448;9.216;2023-02-18T01:48:11;96329.72;;;10.59;100.00
4590;BME280;2307;48.448;9.216;2023-02-18T01:50:39;96323.84;;;10.57;100.00
4590;BME280;2307;48.448;9.216;2023-02-18T01:53:06;96323.84;;;10.57;100.00
4590;BME280;2307;48.448;9.216;2023-02-18T01:55:33;96320.63;;;10.55;100.00
4590;BME280;2307;48.448;9.216;2023-02-18T01:58:01;96336.91;;;10.52;100.00
4590;BME280;2307;48.448;9.216;2023-02-18T02:00:27;96327.38;;;10.45;100.00
4590;BME280;2307;48.448;9.216;2023-02-18T02:02:56;96324.94;;;10.43;100.00
4590;BME280;2307;48.448;9.216;2023-02-18T02:05:22;96325.59;;;10.39;100.00
4590;BME280;2307;48.448;9.216;2023-02-18T02:07:49;96332.69;;;10.38;100.00
4590;BME280;2307;48.448;9.216;2023-02-18T02:10:16;96335.13;;;10.40;100.00
4590;BME280;2307;48.448;9.216;2023-02-18T02:12:47;96316.03;;;10.38;100.00
4590;BME280;2307;48.448;9.216;2023-02-18T02:15:23;96312.38;;;10.39;100.00
4590;BME280;2307;48.448;9.216;2023-02-18T02:17:55;96307.91;;;10.39;100.00
4590;BME280;2307;48.448;9.216;2023-02-18T02:23:19;96306.31;;;10.32;100.00
4590;BME280;2307;48.448;9.216;2023-02-18T02:25:59;96307.13;;;10.32;100.00
4590;BME280;2307;48.448;9.216;2023-02-18T02:34:29;96304.47;;;10.39;100.00
4590;BME280;2307;48.448;9.216;2023-02-18T02:36:59;96285.16;;;10.38;100.00
4590;BME280;2307;48.448;9.216;2023-02-18T02:39:29;96287.97;;;10.43;100.00
4590;BME280;2307;48.448;9.216;2023-02-18T02:41:58;96293.47;;;10.42;100.00
4590;BME280;2307;48.448;9.216;2023-02-18T02:44:29;96286.78;;;10.39;100.00
4590;BME280;2307;48.448;9.216;2023-02-18T02:46:59;96295.53;;;10.40;100.00
4590;BME280;2307;48.448;9.216;2023-02-18T02:49:30;96301.38;;;10.42;100.00
4590;BME280;2307;48.448;9.216;2023-02-18T02:52:01;96290.00;;;10.41;100.00
4590;BME280;2307;48.448;9.216;2023-02-18T02:54:28;96298.78;;;10.35;100.00
4590;BME280;2307;48.448;9.216;2023-02-18T02:57:05;96303.06;;;10.36;100.00
4590;BME280;2307;48.448;9.216;2023-02-18T02:59:32;96296.38;;;10.34;100.00
4590;BME280;2307;48.448;9.216;2023-02-18T03:02:04;96307.13;;;10.32;100.00
4590;BME280;2307;48.448;9.216;2023-02-18T03:04:40;96288.66;;;10.32;100.00
4590;BME280;2307;48.448;9.216;2023-02-18T03:07:20;96294.75;;;10.33;100.00
4590;BME280;2307;48.448;9.216;2023-02-18T03:09:54;96309.97;;;10.31;100.00
4590;BME280;2307;48.448;9.216;2023-02-18T03:12:27;96297.81;;;10.30;100.00
4590;BME280;2307;48.448;9.216;2023-02-18T03:15:01;96301.03;;;10.32;100.00
4590;BME280;2307;48.448;9.216;2023-02-18T03:17:30;96286.59;;;10.34;100.00
4590;BME280;2307;48.448;9.216;2023-02-18T03:20:02;96296.97;;;10.29;100.00
4590;BME280;2307;48.448;9.216;2023-02-18T03:22:33;96279.34;;;10.23;100.00
4590;BME280;2307;48.448;9.216;2023-02-18T03:25:01;96292.97;;;10.20;100.00
4590;BME280;2307;48.448;9.216;2023-02-18T03:27:29;96296.84;;;10.18;100.00
4590;BME280;2307;48.448;9.216;2023-02-18T03:29:58;96290.75;;;10.17;100.00
4590;BME280;2307;48.448;9.216;2023-02-18T03:32:25;96273.28;;;10.16;100.00
4590;BME280;2307;48.448;9.216;2023-02-18T03:34:54;96279.16;;;10.18;100.00
4590;BME280;2307;48.448;9.216;2023-02-18T03:37:22;96278.38;;;10.18;100.00
4590;BME280;2307;48.448;9.216;2023-02-18T03:39:51;96272.66;;;10.21;100.00
4590;BME280;2307;48.448;9.216;2023-02-18T03:42:19;96275.94;;;10.16;100.00
4590;BME280;2307;48.448;9.216;2023-02-18T03:44:50;96275.34;;;10.14;100.00
4590;BME280;2307;48.448;9.216;2023-02-18T03:47:16;96263.72;;;10.08;100.00
4590;BME280;2307;48.448;9.216;2023-02-18T03:49:42;96251.56;;;10.07;100.00
4590;BME280;2307;48.448;9.216;2023-02-18T03:52:09;96250.75;;;10.07;100.00
4590;BME280;2307;48.448;9.216;2023-02-18T03:54:35;96242.03;;;10.06;100.00
4590;BME280;2307;48.448;9.216;2023-02-18T03:57:03;96241.84;;;10.01;100.00
4590;BME280;2307;48.448;9.216;2023-02-18T03:59:29;96237.78;;;9.99;100.00
4590;BME280;2307;48.448;9.216;2023-02-18T04:01:55;96229.72;;;9.94;100.00
4590;BME280;2307;48.448;9.216;2023-02-18T04:04:22;96229.28;;;9.97;100.00
4590;BME280;2307;48.448;9.216;2023-02-18T04:06:48;96215.91;;;9.92;100.00
4590;BME280;2307;48.448;9.216;2023-02-18T04:09:14;96228.06;;;9.93;100.00
4590;BME280;2307;48.448;9.216;2023-02-18T04:11:41;96226.28;;;9.87;100.00
4590;BME280;2307;48.448;9.216;2023-02-18T04:14:08;96230.38;;;9.83;100.00
4590;BME280;2307;48.448;9.216;2023-02-18T04:16:38;96234.97;;;9.94;100.00
4590;BME280;2307;48.448;9.216;2023-02-18T04:19:04;96234.97;;;9.94;100.00
4590;BME280;2307;48.448;9.216;2023-02-18T04:21:30;96231.72;;;9.98;100.00
4590;BME280;2307;48.448;9.216;2023-02-18T04:23:57;96241.66;;;9.96;100.00
4590;BME280;2307;48.448;9.216;2023-02-18T04:26:23;96243.47;;;9.96;100.00
4590;BME280;2307;48.448;9.216;2023-02-18T04:28:50;96244.31;;;9.90;100.00
4590;BME280;2307;48.448;9.216;2023-02-18T04:31:17;96243.13;;;9.92;100.00
4590;BME280;2307;48.448;9.216;2023-02-18T04:33:44;96260.78;;;9.92;100.00
4590;BME280;2307;48.448;9.216;2023-02-18T04:36:10;96250.00;;;9.93;100.00
4590;BME280;2307;48.448;9.216;2023-02-18T04:38:36;96245.56;;;9.87;100.00
4590;BME280;2307;48.448;9.216;2023-02-18T04:41:03;96242.72;;;9.89;100.00
4590;BME280;2307;48.448;9.216;2023-02-18T04:43:29;96241.69;;;9.90;100.00
4590;BME280;2307;48.448;9.216;2023-02-18T04:45:56;96229.72;;;9.87;100.00
4590;BME280;2307;48.448;9.216;2023-02-18T04:48:23;96229.34;;;9.84;100.00
4590;BME280;2307;48.448;9.216;2023-02-18T04:50:50;96225.47;;;9.86;100.00
4590;BME280;2307;48.448;9.216;2023-02-18T04:53:16;96226.28;;;9.87;100.00
4590;BME280;2307;48.448;9.216;2023-02-18T04:55:42;96224.06;;;9.84;100.00
4590;BME280;2307;48.448;9.216;2023-02-18T04:58:09;96228.16;;;9.80;100.00
4590;BME280;2307;48.448;9.216;2023-02-18T05:00:35;96223.25;;;9.83;100.00
4590;BME280;2307;48.448;9.216;2023-02-18T05:03:01;96236.03;;;9.86;100.00
4590;BME280;2307;48.448;9.216;2023-02-18T05:05:29;96236.25;;;9.85;100.00
4590;BME280;2307;48.448;9.216;2023-02-18T05:07:55;96234.97;;;9.94;100.00
4590;BME280;2307;48.448;9.216;2023-02-18T05:10:21;96228.50;;;9.90;100.00
4590;BME280;2307;48.448;9.216;2023-02-18T05:12:48;96248.00;;;9.89;100.00
4590;BME280;2307;48.448;9.216;2023-02-18T05:15:14;96215.66;;;10.00;100.00
4590;BME280;2307;48.448;9.216;2023-02-18T05:17:41;96219.28;;;10.05;100.00
4590;BME280;2307;48.448;9.216;2023-02-18T05:20:07;96218.06;;;10.08;100.00
4590;BME280;2307;48.448;9.216;2023-02-18T05:22:35;96220.53;;;10.03;100.00
4590;BME280;2307;48.448;9.216;2023-02-18T05:25:02;96224.41;;;10.00;100.00
4590;BME280;2307;48.448;9.216;2023-02-18T05:27:29;96214.22;;;10.04;100.00
4590;BME280;2307;48.448;9.216;2023-02-18T05:29:55;96210.19;;;10.01;100.00
4590;BME280;2307;48.448;9.216;2023-02-18T05:32:22;96216.44;;;10.07;100.00
4590;BME280;2307;48.448;9.216;2023-02-18T05:34:48;96220.28;;;10.11;100.00
4590;BME280;2307;48.448;9.216;2023-02-18T05:37:14;96214.97;;;10.24;100.00
4590;BME280;2307;48.448;9.216;2023-02-18T05:39:43;96223.91;;;10.23;100.00
4590;BME280;2307;48.448;9.216;2023-02-18T05:42:10;96214.16;;;10.24;100.00
4590;BME280;2307;48.448;9.216;2023-02-18T05:44:36;96197.50;;;10.23;100.00
4590;BME280;2307;48.448;9.216;2023-02-18T05:47:03;96209.69;;;10.24;100.00
4590;BME280;2307;48.448;9.216;2023-02-18T05:49:30;96204.19;;;10.26;100.00
4590;BME280;2307;48.448;9.216;2023-02-18T05:51:57;96225.47;;;10.31;100.00
4590;BME280;2307;48.448;9.216;2023-02-18T05:54:24;96220.19;;;10.31;100.00
4590;BME280;2307;48.448;9.216;2023-02-18T05:56:52;96222.78;;;10.37;100.00
4590;BME280;2307;48.448;9.216;2023-02-18T05:59:19;96230.50;;;10.39;100.00
4590;BME280;2307;48.448;9.216;2023-02-18T06:01:45;96235.13;;;10.43;100.00
4590;BME280;2307;48.448;9.216;2023-02-18T06:04:12;96221.94;;;10.43;100.00
4590;BME280;2307;48.448;9.216;2023-02-18T06:06:38;96228.66;;;10.46;100.00
4590;BME280;2307;48.448;9.216;2023-02-18T06:09:05;96234.97;;;10.38;100.00
4590;BME280;2307;48.448;9.216;2023-02-18T06:11:32;96223.84;;;10.36;100.00
4590;BME280;2307;48.448;9.216;2023-02-18T06:13:59;96221.19;;;10.36;100.00
4590;BME280;2307;48.448;9.216;2023-02-18T06:16:26;96218.56;;;10.36;100.00
4590;BME280;2307;48.448;9.216;2023-02-18T06:18:52;96223.41;;;10.39;100.00
4590;BME280;2307;48.448;9.216;2023-02-18T06:21:19;96233.16;;;10.39;100.00
4590;BME280;2307;48.448;9.216;2023-02-18T06:23:45;96220.16;;;10.37;100.00
4590;BME280;2307;48.448;9.216;2023-02-18T06:26:11;96233.16;;;10.39;100.00
4590;BME280;2307;48.448;9.216;2023-02-18T06:28:38;96215.09;;;10.36;100.00
4590;BME280;2307;48.448;9.216;2023-02-18T06:31:06;96228.69;;;10.39;100.00
4590;BME280;2307;48.448;9.216;2023-02-18T06:33:32;96222.97;;;10.42;100.00
4590;BME280;2307;48.448;9.216;2023-02-18T06:35:59;96226.63;;;10.41;100.00
4590;BME280;2307;48.448;9.216;2023-02-18T06:38:25;96230.66;;;10.44;100.00
4590;BME280;2307;48.448;9.216;2023-02-18T06:40:52;96227.44;;;10.42;100.00
4590;BME280;2307;48.448;9.216;2023-02-18T06:43:19;96224.22;;;10.40;100.00
4590;BME280;2307;48.448;9.216;2023-02-18T06:45:45;96226.19;;;10.44;100.00
4590;BME280;2307;48.448;9.216;2023-02-18T06:48:13;96235.53;;;10.47;100.00
4590;BME280;2307;48.448;9.216;2023-02-18T06:50:41;96225.34;;;10.50;100.00
4590;BME280;2307;48.448;9.216;2023-02-18T06:53:07;96219.63;;;10.53;100.00
4590;BME280;2307;48.448;9.216;2023-02-18T06:55:34;96230.63;;;10.50;100.00
4590;BME280;2307;48.448;9.216;2023-02-18T06:58:00;96225.34;;;10.50;100.00
4590;BME280;2307;48.448;9.216;2023-02-18T07:00:26;96220.69;;;10.52;100.00
4590;BME280;2307;48.448;9.216;2023-02-18T07:02:53;96225.34;;;10.50;100.00
4590;BME280;2307;48.448;9.216;2023-02-18T07:05:20;96230.81;;;10.55;100.00
4590;BME280;2307;48.448;9.216;2023-02-18T07:07:47;96237.28;;;10.59;100.00
4590;BME280;2307;48.448;9.216;2023-02-18T07:10:13;96229.34;;;10.59;100.00
4590;BME280;2307;48.448;9.216;2023-02-18T07:12:39;96229.28;;;10.66;100.00
4590;BME280;2307;48.448;9.216;2023-02-18T07:15:06;96221.00;;;10.62;100.00
4590;BME280;2307;48.448;9.216;2023-02-18T07:17:32;96228.47;;;10.65;100.00
4590;BME280;2307;48.448;9.216;2023-02-18T07:19:59;96231.13;;;10.65;100.00
4590;BME280;2307;48.448;9.216;2023-02-18T07:22:26;96246.72;;;10.74;100.00
4590;BME280;2307;48.448;9.216;2023-02-18T07:24:53;96241.88;;;10.71;100.00
4590;BME280;2307;48.448;9.216;2023-02-18T07:27:20;96239.66;;;10.68;100.00
4590;BME280;2307;48.448;9.216;2023-02-18T07:29:46;96237.41;;;10.71;100.00
4590;BME280;2307;48.448;9.216;2023-02-18T07:32:13;96230.06;;;10.73;100.00
4590;BME280;2307;48.448;9.216;2023-02-18T07:34:40;96237.13;;;10.79;100.00
4590;BME280;2307;48.448;9.216;2023-02-18T07:37:06;96231.69;;;10.74;100.00
4590;BME280;2307;48.448;9.216;2023-02-18T07:39:38;96249.56;;;10.72;100.00
4590;BME280;2307;48.448;9.216;2023-02-18T07:42:04;96232.50;;;10.75;100.00
4590;BME280;2307;48.448;9.216;2023-02-18T07:44:31;96229.19;;;10.79;100.00
4590;BME280;2307;48.448;9.216;2023-02-18T07:46:57;96233.28;;;10.75;100.00
4590;BME280;2307;48.448;9.216;2023-02-18T07:49:23;96236.97;;;10.74;100.00
4590;BME280;2307;48.448;9.216;2023-02-18T07:51:50;96224.69;;;10.86;100.00
4590;BME280;2307;48.448;9.216;2023-02-18T07:54:16;96233.25;;;10.82;100.00
4590;BME280;2307;48.448;9.216;2023-02-18T07:56:44;96239.56;;;10.81;100.00
4590;BME280;2307;48.448;9.216;2023-02-18T07:59:11;96236.25;;;10.85;100.00
4590;BME280;2307;48.448;9.216;2023-02-18T08:01:38;96220.22;;;10.87;100.00
4590;BME280;2307;48.448;9.216;2023-02-18T08:04:05;96221.41;;;10.91;100.00
4590;BME280;2307;48.448;9.216;2023-02-18T08:06:32;96206.72;;;10.95;100.00
4590;BME280;2307;48.448;9.216;2023-02-18T08:08:59;96203.19;;;11.01;100.00
4590;BME280;2307;48.448;9.216;2023-02-18T08:11:26;96201.16;;;11.03;100.00
4590;BME280;2307;48.448;9.216;2023-02-18T08:13:53;96207.84;;;11.05;100.00
4590;BME280;2307;48.448;9.216;2023-02-18T08:16:20;96209.09;;;11.03;100.00
4590;BME280;2307;48.448;9.216;2023-02-18T08:18:47;96207.47;;;11.02;100.00
4590;BME280;2307;48.448;9.216;2023-02-18T08:21:13;96221.50;;;11.02;100.00
4590;BME280;2307;48.448;9.216;2023-02-18T08:23:40;96196.50;;;10.98;100.00
4590;BME280;2307;48.448;9.216;2023-02-18T08:26:06;96211.13;;;11.01;100.00
4590;BME280;2307;48.448;9.216;2023-02-18T08:28:33;96202.94;;;11.09;100.00
4590;BME280;2307;48.448;9.216;2023-02-18T08:31:01;96208.81;;;11.11;100.00
4590;BME280;2307;48.448;9.216;2023-02-18T08:33:27;96202.94;;;11.09;100.00
4590;BME280;2307;48.448;9.216;2023-02-18T08:35:54;96207.41;;;11.08;100.00
4590;BME280;2307;48.448;9.216;2023-02-18T08:38:21;96213.50;;;11.09;100.00
4590;BME280;2307;48.448;9.216;2023-02-18T08:40:48;96201.31;;;11.08;100.00
4590;BME280;2307;48.448;9.216;2023-02-18T08:43:15;96204.81;;;11.02;100.00
4590;BME280;2307;48.448;9.216;2023-02-18T08:45:41;96188.97;;;11.02;100.00
4590;BME280;2307;48.448;9.216;2023-02-18T08:48:09;96191.53;;;11.08;100.00
4590;BME280;2307;48.448;9.216;2023-02-18T08:50:36;96188.75;;;11.03;100.00
4590;BME280;2307;48.448;9.216;2023-02-18T08:53:03;96193.59;;;11.06;100.00
4590;BME280;2307;48.448;9.216;2023-02-18T08:55:30;96201.31;;;11.08;100.00
4590;BME280;2307;48.448;9.216;2023-02-18T08:57:56;96201.38;;;11.19;100.00
4590;BME280;2307;48.448;9.216;2023-02-18T09:00:23;96191.84;;;11.18;100.00
4590;BME280;2307;48.448;9.216;2023-02-18T09:02:49;96196.78;;;11.15;100.00
4590;BME280;2307;48.448;9.216;2023-02-18T09:05:17;96191.03;;;11.18;100.00
4590;BME280;2307;48.448;9.216;2023-02-18T09:07:43;96199.63;;;11.13;100.00
4590;BME280;2307;48.448;9.216;2023-02-18T09:10:10;96187.38;;;11.19;100.00
4590;BME280;2307;48.448;9.216;2023-02-18T09:12:36;96183.41;;;11.28;100.00
4590;BME280;2307;48.448;9.216;2023-02-18T09:15:03;96184.88;;;11.24;100.00
4590;BME280;2307;48.448;9.216;2023-02-18T09:17:29;96188.53;;;11.23;100.00
4590;BME280;2307;48.448;9.216;2023-02-18T09:19:56;96194.72;;;11.17;100.00
4590;BME280;2307;48.448;9.216;2023-02-18T09:22:24;96196.19;;;11.31;100.00
4590;BME280;2307;48.448;9.216;2023-02-18T09:24:50;96183.25;;;11.23;100.00
4590;BME280;2307;48.448;9.216;2023-02-18T09:27:16;96186.50;;;11.25;100.00
4590;BME280;2307;48.448;9.216;2023-02-18T09:29:43;96179.66;;;11.17;100.00
4590;BME280;2307;48.448;9.216;2023-02-18T09:32:09;96183.31;;;11.16;100.00
4590;BME280;2307;48.448;9.216;2023-02-18T09:34:36;96184.56;;;11.32;100.00
4590;BME280;2307;48.448;9.216;2023-02-18T09:37:03;96182.75;;;11.33;100.00
4590;BME280;2307;48.448;9.216;2023-02-18T09:39:31;96186.28;;;11.27;100.00
4590;BME280;2307;48.448;9.216;2023-02-18T09:41:57;96162.25;;;11.28;100.00
4590;BME280;2307;48.448;9.216;2023-02-18T09:44:26;96177.09;;;11.29;100.00
4590;BME280;2307;48.448;9.216;2023-02-18T09:46:53;96166.22;;;11.37;100.00
4590;BME280;2307;48.448;9.216;2023-02-18T09:49:21;96159.47;;;11.41;100.00
4590;BME280;2307;48.448;9.216;2023-02-18T09:51:48;96163.28;;;11.45;100.00
4590;BME280;2307;48.448;9.216;2023-02-18T09:54:15;96151.09;;;11.44;100.00
4590;BME280;2307;48.448;9.216;2023-02-18T09:56:44;96143.94;;;11.45;100.00
4590;BME280;2307;48.448;9.216;2023-02-18T09:59:12;96141.81;;;11.53;100.00
4590;BME280;2307;48.448;9.216;2023-02-18T10:01:40;96140.56;;;11.56;100.00
4590;BME280;2307;48.448;9.216;2023-02-18T10:04:09;96138.13;;;11.54;100.00
4590;BME280;2307;48.448;9.216;2023-02-18T10:06:38;96136.09;;;11.56;100.00
4590;BME280;2307;48.448;9.216;2023-02-18T10:09:05;96127.84;;;11.64;100.00
4590;BME280;2307;48.448;9.216;2023-02-18T10:11:37;96143.66;;;11.71;100.00
4590;BME280;2307;48.448;9.216;2023-02-18T10:14:08;96142.41;;;11.73;100.00
4590;BME280;2307;48.448;9.216;2023-02-18T10:16:35;96140.81;;;11.73;100.00
4590;BME280;2307;48.448;9.216;2023-02-18T10:19:03;96133.28;;;11.88;100.00
4590;BME280;2307;48.448;9.216;2023-02-18T10:21:32;96135.28;;;12.04;100.00
4590;BME280;2307;48.448;9.216;2023-02-18T10:27:24;96148.38;;;11.99;100.00
4590;BME280;2307;48.448;9.216;2023-02-18T10:29:52;96148.53;;;12.04;100.00
4590;BME280;2307;48.448;9.216;2023-02-18T10:32:20;96148.44;;;12.10;100.00
4590;BME280;2307;48.448;9.216;2023-02-18T10:34:48;96150.72;;;12.07;100.00
4590;BME280;2307;48.448;9.216;2023-02-18T10:37:22;96148.63;;;11.97;100.00
4590;BME280;2307;48.448;9.216;2023-02-18T10:39:55;96146.78;;;11.98;100.00
4590;BME280;2307;48.448;9.216;2023-02-18T10:42:28;96165.41;;;11.91;100.00
4590;BME280;2307;48.448;9.216;2023-02-18T10:45:02;96146.25;;;11.89;100.00
4590;BME280;2307;48.448;9.216;2023-02-18T10:47:33;96157.59;;;11.96;100.00
4590;BME280;2307;48.448;9.216;2023-02-18T10:50:02;96133.16;;;11.83;100.00
4590;BME280;2307;48.448;9.216;2023-02-18T10:52:29;96127.63;;;11.84;100.00
4590;BME280;2307;48.448;9.216;2023-02-18T10:55:00;96163.41;;;11.87;100.00
4590;BME280;2307;48.448;9.216;2023-02-18T10:57:28;96144.22;;;11.91;100.00
4590;BME280;2307;48.448;9.216;2023-02-18T11:00:01;96136.41;;;11.96;100.00
4590;BME280;2307;48.448;9.216;2023-02-18T11:02:35;96146.63;;;11.93;100.00
4590;BME280;2307;48.448;9.216;2023-02-18T11:05:05;96178.84;;;11.90;100.00
4590;BME280;2307;48.448;9.216;2023-02-18T11:07:32;96161.38;;;11.89;100.00
4590;BME280;2307;48.448;9.216;2023-02-18T11:10:00;96166.75;;;11.82;100.00
4590;BME280;2307;48.448;9.216;2023-02-18T11:12:28;96177.09;;;11.84;100.00
4590;BME280;2307;48.448;9.216;2023-02-18T11:15:14;96173.63;;;11.83;100.00
4590;BME280;2307;48.448;9.216;2023-02-18T11:17:42;96150.41;;;11.85;100.00
4590;BME280;2307;48.448;9.216;2023-02-18T11:20:19;96144.75;;;11.82;100.00
4590;BME280;2307;48.448;9.216;2023-02-18T11:22:45;96123.13;;;11.85;100.00
4590;BME280;2307;48.448;9.216;2023-02-18T11:25:17;96124.31;;;11.89;100.00
4590;BME280;2307;48.448;9.216;2023-02-18T11:27:44;96128.09;;;11.93;100.00
4590;BME280;2307;48.448;9.216;2023-02-18T11:30:16;96108.91;;;11.97;100.00
4590;BME280;2307;48.448;9.216;2023-02-18T11:32:44;96122.16;;;11.97;100.00
4590;BME280;2307;48.448;9.216;2023-02-18T11:35:16;96121.44;;;12.02;100.00
4590;BME280;2307;48.448;9.216;2023-02-18T11:37:43;96114.41;;;11.96;100.00
4590;BME280;2307;48.448;9.216;2023-02-18T11:40:18;96111.91;;;12.01;100.00
4590;BME280;2307;48.448;9.216;2023-02-18T11:42:45;96109.25;;;12.01;100.00
4590;BME280;2307;48.448;9.216;2023-02-18T11:45:25;96093.44;;;11.83;100.00
4590;BME280;2307;48.448;9.216;2023-02-18T11:47:57;96102.41;;;11.82;100.00
4590;BME280;2307;48.448;9.216;2023-02-18T11:50:24;96117.47;;;11.81;100.00
4590;BME280;2307;48.448;9.216;2023-02-18T11:52:50;96128.06;;;11.81;100.00
4590;BME280;2307;48.448;9.216;2023-02-18T11:55:18;96118.28;;;11.82;100.00
4590;BME280;2307;48.448;9.216;2023-02-18T11:57:46;96094.78;;;11.73;100.00
4590;BME280;2307;48.448;9.216;2023-02-18T12:00:15;96093.16;;;11.73;100.00
4590;BME280;2307;48.448;9.216;2023-02-18T12:02:46;96094.69;;;11.80;100.00
4590;BME280;2307;48.448;9.216;2023-02-18T12:05:13;96094.31;;;11.77;100.00
4590;BME280;2307;48.448;9.216;2023-02-18T12:07:42;96075.66;;;11.71;100.00
4590;BME280;2307;48.448;9.216;2023-02-18T12:10:10;96078.88;;;11.73;100.00
4590;BME280;2307;48.448;9.216;2023-02-18T12:12:42;96095.44;;;11.69;100.00
4590;BME280;2307;48.448;9.216;2023-02-18T12:15:13;96092.78;;;11.69;100.00
4590;BME280;2307;48.448;9.216;2023-02-18T12:17:45;96086.63;;;11.75;100.00
4590;BME280;2307;48.448;9.216;2023-02-18T12:20:26;96102.19;;;11.65;100.00
4590;BME280;2307;48.448;9.216;2023-02-18T12:23:03;96091.47;;;11.60;100.00
4590;BME280;2307;48.448;9.216;2023-02-18T12:25:35;96080.22;;;11.64;100.00
4590;BME280;2307;48.448;9.216;2023-02-18T12:28:11;96070.38;;;11.71;100.00
4590;BME280;2307;48.448;9.216;2023-02-18T12:33:25;96057.88;;;11.79;100.00
4590;BME280;2307;48.448;9.216;2023-02-18T12:35:58;96086.06;;;11.85;100.00
4590;BME280;2307;48.448;9.216;2023-02-18T12:38:39;96069.84;;;11.81;100.00
4590;BME280;2307;48.448;9.216;2023-02-18T12:41:11;96095.66;;;11.86;100.00
4590;BME280;2307;48.448;9.216;2023-02-18T12:43:44;96079.31;;;11.89;100.00
4590;BME280;2307;48.448;9.216;2023-02-18T12:49:24;96077.81;;;11.93;100.00
4590;BME280;2307;48.448;9.216;2023-02-18T12:52:04;96080.00;;;11.96;100.00
4590;BME280;2307;48.448;9.216;2023-02-18T12:54:41;96077.13;;;11.97;100.00
4590;BME280;2307;48.448;9.216;2023-02-18T12:57:14;96085.63;;;11.88;100.00
4590;BME280;2307;48.448;9.216;2023-02-18T12:59:55;96086.53;;;11.82;100.00
4590;BME280;2307;48.448;9.216;2023-02-18T13:02:40;96071.47;;;11.82;100.00
4590;BME280;2307;48.448;9.216;2023-02-18T13:05:14;96063.28;;;11.84;100.00
4590;BME280;2307;48.448;9.216;2023-02-18T13:07:51;96067.06;;;11.76;100.00
4590;BME280;2307;48.448;9.216;2023-02-18T13:10:26;96065.81;;;11.79;100.00
4590;BME280;2307;48.448;9.216;2023-02-18T13:12:56;96064.06;;;11.73;100.00
4590;BME280;2307;48.448;9.216;2023-02-18T13:15:27;96085.00;;;11.74;100.00
4590;BME280;2307;48.448;9.216;2023-02-18T13:17:56;96060.50;;;11.79;100.00
4590;BME280;2307;48.448;9.216;2023-02-18T13:20:27;96071.66;;;11.81;100.00
4590;BME280;2307;48.448;9.216;2023-02-18T13:22:55;96104.44;;;11.80;100.00
4590;BME280;2307;48.448;9.216;2023-02-18T13:25:22;96056.25;;;11.78;100.00
4590;BME280;2307;48.448;9.216;2023-02-18T13:27:52;96043.16;;;11.83;100.00
4590;BME280;2307;48.448;9.216;2023-02-18T13:30:24;96074.09;;;11.82;100.00
4590;BME280;2307;48.448;9.216;2023-02-18T13:32:56;96072.69;;;11.80;100.00
4590;BME280;2307;48.448;9.216;2023-02-18T13:35:26;96035.22;;;11.83;100.00